sensor_id;sensor_type;location;lat;lon;timestamp;P1;durP1;ratioP1;P2;durP2;ratioP2
38034;SDS011;23841;48.524;1.342;2022-12-08T00:00:29;12.27;;;6.53;;
38034;SDS011;23841;48.524;1.342;2022-12-08T00:02:54;11.77;;;6.65;;
38034;SDS011;23841;48.524;1.342;2022-12-08T00:05:20;10.77;;;5.90;;
38034;SDS011;23841;48.524;1.342;2022-12-08T00:08:04;9.57;;;5.78;;
38034;SDS011;23841;48.524;1.342;2022-12-08T00:10:48;9.95;;;5.97;;
38034;SDS011;23841;48.524;1.342;2022-12-08T00:13:13;10.00;;;5.78;;
38034;SDS011;23841;48.524;1.342;2022-12-08T00:15:39;10.05;;;6.00;;
38034;SDS011;23841;48.524;1.342;2022-12-08T00:18:04;13.23;;;7.05;;
38034;SDS011;23841;48.524;1.342;2022-12-08T00:20:29;9.48;;;5.65;;
38034;SDS011;23841;48.524;1.342;2022-12-08T00:22:55;10.50;;;6.00;;
38034;SDS011;23841;48.524;1.342;2022-12-08T00:25:20;9.93;;;5.93;;
38034;SDS011;23841;48.524;1.342;2022-12-08T00:27:46;10.25;;;6.78;;
38034;SDS011;23841;48.524;1.342;2022-12-08T00:30:11;12.88;;;6.10;;
38034;SDS011;23841;48.524;1.342;2022-12-08T00:32:36;10.30;;;6.28;;
38034;SDS011;23841;48.524;1.342;2022-12-08T00:35:02;9.85;;;5.88;;
38034;SDS011;23841;48.524;1.342;2022-12-08T00:37:27;9.93;;;5.95;;
38034;SDS011;23841;48.524;1.342;2022-12-08T00:39:53;11.27;;;6.03;;
38034;SDS011;23841;48.524;1.342;2022-12-08T00:42:18;12.23;;;6.43;;
38034;SDS011;23841;48.524;1.342;2022-12-08T00:44:44;11.95;;;6.82;;
38034;SDS011;23841;48.524;1.342;2022-12-08T00:47:10;11.65;;;6.05;;
38034;SDS011;23841;48.524;1.342;2022-12-08T00:49:35;10.25;;;5.72;;
38034;SDS011;23841;48.524;1.342;2022-12-08T00:52:00;15.88;;;7.35;;
38034;SDS011;23841;48.524;1.342;2022-12-08T00:54:26;10.68;;;6.45;;
38034;SDS011;23841;48.524;1.342;2022-12-08T00:56:51;11.63;;;6.15;;
38034;SDS011;23841;48.524;1.342;2022-12-08T00:59:17;9.80;;;6.05;;
38034;SDS011;23841;48.524;1.342;2022-12-08T01:01:43;9.43;;;6.30;;
38034;SDS011;23841;48.524;1.342;2022-12-08T01:04:09;9.88;;;5.68;;
38034;SDS011;23841;48.524;1.342;2022-12-08T01:06:36;11.35;;;5.78;;
38034;SDS011;23841;48.524;1.342;2022-12-08T01:09:02;11.45;;;6.28;;
38034;SDS011;23841;48.524;1.342;2022-12-08T01:11:28;8.75;;;5.88;;
38034;SDS011;23841;48.524;1.342;2022-12-08T01:13:55;10.40;;;5.93;;
38034;SDS011;23841;48.524;1.342;2022-12-08T01:16:24;11.90;;;5.70;;
38034;SDS011;23841;48.524;1.342;2022-12-08T01:18:50;10.15;;;6.05;;
38034;SDS011;23841;48.524;1.342;2022-12-08T01:21:15;12.85;;;6.18;;
38034;SDS011;23841;48.524;1.342;2022-12-08T01:23:41;11.43;;;5.70;;
38034;SDS011;23841;48.524;1.342;2022-12-08T01:26:07;12.43;;;5.88;;
38034;SDS011;23841;48.524;1.342;2022-12-08T01:28:34;12.07;;;6.43;;
38034;SDS011;23841;48.524;1.342;2022-12-08T01:31:00;12.13;;;6.05;;
38034;SDS011;23841;48.524;1.342;2022-12-08T01:33:25;11.68;;;6.53;;
38034;SDS011;23841;48.524;1.342;2022-12-08T01:35:51;12.45;;;6.68;;
38034;SDS011;23841;48.524;1.342;2022-12-08T01:38:16;11.95;;;6.43;;
38034;SDS011;23841;48.524;1.342;2022-12-08T01:40:42;10.80;;;6.25;;
38034;SDS011;23841;48.524;1.342;2022-12-08T01:43:17;11.73;;;6.60;;
38034;SDS011;23841;48.524;1.342;2022-12-08T01:45:42;12.50;;;7.50;;
38034;SDS011;23841;48.524;1.342;2022-12-08T01:48:22;9.27;;;5.30;;
38034;SDS011;23841;48.524;1.342;2022-12-08T01:50:48;10.13;;;6.22;;
38034;SDS011;23841;48.524;1.342;2022-12-08T01:53:16;13.45;;;6.80;;
38034;SDS011;23841;48.524;1.342;2022-12-08T01:55:46;10.95;;;5.60;;
38034;SDS011;23841;48.524;1.342;2022-12-08T01:58:14;9.90;;;5.65;;
38034;SDS011;23841;48.524;1.342;2022-12-08T02:00:40;9.80;;;6.20;;
38034;SDS011;23841;48.524;1.342;2022-12-08T02:03:06;10.65;;;6.07;;
38034;SDS011;23841;48.524;1.342;2022-12-08T02:05:33;11.70;;;6.82;;
38034;SDS011;23841;48.524;1.342;2022-12-08T02:08:01;9.98;;;5.50;;
38034;SDS011;23841;48.524;1.342;2022-12-08T02:10:29;12.23;;;6.30;;
38034;SDS011;23841;48.524;1.342;2022-12-08T02:12:55;13.50;;;6.30;;
38034;SDS011;23841;48.524;1.342;2022-12-08T02:15:23;11.02;;;6.03;;
38034;SDS011;23841;48.524;1.342;2022-12-08T02:18:03;11.50;;;6.20;;
38034;SDS011;23841;48.524;1.342;2022-12-08T02:20:40;12.45;;;6.38;;
38034;SDS011;23841;48.524;1.342;2022-12-08T02:23:43;11.02;;;6.20;;
38034;SDS011;23841;48.524;1.342;2022-12-08T02:26:16;10.80;;;6.32;;
38034;SDS011;23841;48.524;1.342;2022-12-08T02:34:04;12.57;;;6.47;;
38034;SDS011;23841;48.524;1.342;2022-12-08T02:39:02;10.38;;;5.78;;
38034;SDS011;23841;48.524;1.342;2022-12-08T02:46:34;9.25;;;5.32;;
38034;SDS011;23841;48.524;1.342;2022-12-08T02:49:00;11.48;;;5.78;;
38034;SDS011;23841;48.524;1.342;2022-12-08T02:51:26;10.02;;;5.65;;
38034;SDS011;23841;48.524;1.342;2022-12-08T02:53:51;9.75;;;5.50;;
38034;SDS011;23841;48.524;1.342;2022-12-08T03:01:13;9.23;;;5.53;;
38034;SDS011;23841;48.524;1.342;2022-12-08T03:11:25;9.02;;;4.47;;
38034;SDS011;23841;48.524;1.342;2022-12-08T03:13:53;8.38;;;4.30;;
38034;SDS011;23841;48.524;1.342;2022-12-08T03:16:23;8.98;;;5.10;;
38034;SDS011;23841;48.524;1.342;2022-12-08T03:18:58;9.77;;;4.70;;
38034;SDS011;23841;48.524;1.342;2022-12-08T03:21:24;7.15;;;4.20;;
38034;SDS011;23841;48.524;1.342;2022-12-08T03:23:51;8.55;;;4.30;;
38034;SDS011;23841;48.524;1.342;2022-12-08T03:26:24;8.55;;;4.97;;
38034;SDS011;23841;48.524;1.342;2022-12-08T03:28:52;7.88;;;4.53;;
38034;SDS011;23841;48.524;1.342;2022-12-08T03:31:18;6.75;;;4.75;;
38034;SDS011;23841;48.524;1.342;2022-12-08T03:33:44;9.63;;;4.85;;
38034;SDS011;23841;48.524;1.342;2022-12-08T03:36:12;9.68;;;4.60;;
38034;SDS011;23841;48.524;1.342;2022-12-08T03:38:38;9.52;;;4.82;;
38034;SDS011;23841;48.524;1.342;2022-12-08T03:41:04;9.65;;;4.45;;
38034;SDS011;23841;48.524;1.342;2022-12-08T03:43:50;10.30;;;4.75;;
38034;SDS011;23841;48.524;1.342;2022-12-08T03:46:16;9.15;;;4.47;;
38034;SDS011;23841;48.524;1.342;2022-12-08T03:48:41;9.82;;;4.57;;
38034;SDS011;23841;48.524;1.342;2022-12-08T03:51:07;8.68;;;5.25;;
38034;SDS011;23841;48.524;1.342;2022-12-08T03:53:32;8.10;;;4.90;;
38034;SDS011;23841;48.524;1.342;2022-12-08T03:55:57;7.60;;;4.95;;
38034;SDS011;23841;48.524;1.342;2022-12-08T03:58:23;7.60;;;4.25;;
38034;SDS011;23841;48.524;1.342;2022-12-08T04:00:48;8.50;;;4.55;;
38034;SDS011;23841;48.524;1.342;2022-12-08T04:03:13;8.20;;;4.95;;
38034;SDS011;23841;48.524;1.342;2022-12-08T04:05:39;8.60;;;4.53;;
38034;SDS011;23841;48.524;1.342;2022-12-08T04:08:04;7.90;;;4.07;;
38034;SDS011;23841;48.524;1.342;2022-12-08T04:10:30;8.80;;;4.82;;
38034;SDS011;23841;48.524;1.342;2022-12-08T04:12:55;8.65;;;4.95;;
38034;SDS011;23841;48.524;1.342;2022-12-08T04:15:23;8.57;;;5.00;;
38034;SDS011;23841;48.524;1.342;2022-12-08T04:17:48;8.45;;;4.57;;
38034;SDS011;23841;48.524;1.342;2022-12-08T04:20:15;8.52;;;4.90;;
38034;SDS011;23841;48.524;1.342;2022-12-08T04:22:40;7.03;;;4.13;;
38034;SDS011;23841;48.524;1.342;2022-12-08T04:25:06;9.27;;;4.90;;
38034;SDS011;23841;48.524;1.342;2022-12-08T04:27:32;8.40;;;5.05;;
38034;SDS011;23841;48.524;1.342;2022-12-08T04:29:57;8.40;;;4.65;;
38034;SDS011;23841;48.524;1.342;2022-12-08T04:32:22;8.35;;;5.00;;
38034;SDS011;23841;48.524;1.342;2022-12-08T04:34:48;11.20;;;4.25;;
38034;SDS011;23841;48.524;1.342;2022-12-08T04:37:13;10.57;;;4.53;;
38034;SDS011;23841;48.524;1.342;2022-12-08T04:39:38;6.45;;;4.00;;
38034;SDS011;23841;48.524;1.342;2022-12-08T04:42:03;7.47;;;4.68;;
38034;SDS011;23841;48.524;1.342;2022-12-08T04:44:29;9.80;;;4.25;;
38034;SDS011;23841;48.524;1.342;2022-12-08T04:46:54;9.52;;;4.80;;
38034;SDS011;23841;48.524;1.342;2022-12-08T04:49:20;7.03;;;4.40;;
38034;SDS011;23841;48.524;1.342;2022-12-08T04:51:45;8.43;;;4.13;;
38034;SDS011;23841;48.524;1.342;2022-12-08T04:54:10;8.32;;;4.70;;
38034;SDS011;23841;48.524;1.342;2022-12-08T04:56:36;7.22;;;4.00;;
38034;SDS011;23841;48.524;1.342;2022-12-08T04:59:01;6.55;;;4.28;;
38034;SDS011;23841;48.524;1.342;2022-12-08T05:01:26;6.18;;;3.78;;
38034;SDS011;23841;48.524;1.342;2022-12-08T05:03:51;8.40;;;3.88;;
38034;SDS011;23841;48.524;1.342;2022-12-08T05:06:17;8.52;;;3.72;;
38034;SDS011;23841;48.524;1.342;2022-12-08T05:08:42;7.03;;;4.45;;
38034;SDS011;23841;48.524;1.342;2022-12-08T05:11:08;8.57;;;4.05;;
38034;SDS011;23841;48.524;1.342;2022-12-08T05:13:34;9.65;;;4.72;;
38034;SDS011;23841;48.524;1.342;2022-12-08T05:16:10;6.60;;;3.92;;
38034;SDS011;23841;48.524;1.342;2022-12-08T05:18:36;6.95;;;3.83;;
38034;SDS011;23841;48.524;1.342;2022-12-08T05:21:01;8.98;;;4.43;;
38034;SDS011;23841;48.524;1.342;2022-12-08T05:23:26;6.90;;;4.30;;
38034;SDS011;23841;48.524;1.342;2022-12-08T05:25:52;7.00;;;4.03;;
38034;SDS011;23841;48.524;1.342;2022-12-08T05:28:17;9.35;;;5.43;;
38034;SDS011;23841;48.524;1.342;2022-12-08T05:30:43;8.88;;;4.38;;
38034;SDS011;23841;48.524;1.342;2022-12-08T05:33:12;7.57;;;3.80;;
38034;SDS011;23841;48.524;1.342;2022-12-08T05:35:37;7.07;;;3.63;;
38034;SDS011;23841;48.524;1.342;2022-12-08T05:38:02;6.80;;;4.28;;
38034;SDS011;23841;48.524;1.342;2022-12-08T05:40:28;6.13;;;3.65;;
38034;SDS011;23841;48.524;1.342;2022-12-08T05:42:54;7.15;;;4.22;;
38034;SDS011;23841;48.524;1.342;2022-12-08T05:45:19;7.03;;;4.18;;
38034;SDS011;23841;48.524;1.342;2022-12-08T05:47:45;5.40;;;3.55;;
38034;SDS011;23841;48.524;1.342;2022-12-08T05:50:10;12.45;;;4.95;;
38034;SDS011;23841;48.524;1.342;2022-12-08T05:52:35;16.60;;;5.55;;
38034;SDS011;23841;48.524;1.342;2022-12-08T05:55:01;7.63;;;4.05;;
38034;SDS011;23841;48.524;1.342;2022-12-08T05:57:26;6.55;;;3.75;;
38034;SDS011;23841;48.524;1.342;2022-12-08T05:59:51;6.88;;;3.47;;
38034;SDS011;23841;48.524;1.342;2022-12-08T06:02:16;6.75;;;3.80;;
38034;SDS011;23841;48.524;1.342;2022-12-08T06:04:42;7.05;;;4.03;;
38034;SDS011;23841;48.524;1.342;2022-12-08T06:07:07;8.35;;;3.90;;
38034;SDS011;23841;48.524;1.342;2022-12-08T06:09:32;6.15;;;3.55;;
38034;SDS011;23841;48.524;1.342;2022-12-08T06:11:58;8.52;;;4.05;;
38034;SDS011;23841;48.524;1.342;2022-12-08T06:14:23;7.60;;;3.70;;
38034;SDS011;23841;48.524;1.342;2022-12-08T06:16:49;7.07;;;3.40;;
38034;SDS011;23841;48.524;1.342;2022-12-08T06:19:14;7.63;;;4.15;;
38034;SDS011;23841;48.524;1.342;2022-12-08T06:21:39;6.65;;;4.15;;
38034;SDS011;23841;48.524;1.342;2022-12-08T06:24:05;7.45;;;4.35;;
38034;SDS011;23841;48.524;1.342;2022-12-08T06:26:30;7.05;;;4.53;;
38034;SDS011;23841;48.524;1.342;2022-12-08T06:28:55;6.60;;;3.97;;
38034;SDS011;23841;48.524;1.342;2022-12-08T06:31:21;7.85;;;4.03;;
38034;SDS011;23841;48.524;1.342;2022-12-08T06:33:47;7.95;;;4.30;;
38034;SDS011;23841;48.524;1.342;2022-12-08T06:36:13;7.43;;;4.50;;
38034;SDS011;23841;48.524;1.342;2022-12-08T06:38:39;7.45;;;4.38;;
38034;SDS011;23841;48.524;1.342;2022-12-08T06:41:05;7.65;;;4.30;;
38034;SDS011;23841;48.524;1.342;2022-12-08T06:43:30;7.20;;;4.43;;
38034;SDS011;23841;48.524;1.342;2022-12-08T06:45:55;8.55;;;4.57;;
38034;SDS011;23841;48.524;1.342;2022-12-08T06:48:21;7.43;;;4.88;;
38034;SDS011;23841;48.524;1.342;2022-12-08T06:50:46;11.20;;;5.38;;
38034;SDS011;23841;48.524;1.342;2022-12-08T06:53:12;7.28;;;4.70;;
38034;SDS011;23841;48.524;1.342;2022-12-08T06:55:41;7.65;;;4.90;;
38034;SDS011;23841;48.524;1.342;2022-12-08T06:58:06;9.63;;;5.18;;
38034;SDS011;23841;48.524;1.342;2022-12-08T07:00:32;10.38;;;5.25;;
38034;SDS011;23841;48.524;1.342;2022-12-08T07:02:57;9.85;;;5.93;;
38034;SDS011;23841;48.524;1.342;2022-12-08T07:05:22;9.45;;;5.57;;
38034;SDS011;23841;48.524;1.342;2022-12-08T07:07:47;8.57;;;5.20;;
38034;SDS011;23841;48.524;1.342;2022-12-08T07:10:13;8.23;;;5.40;;
38034;SDS011;23841;48.524;1.342;2022-12-08T07:12:38;9.32;;;5.40;;
38034;SDS011;23841;48.524;1.342;2022-12-08T07:15:03;11.45;;;6.10;;
38034;SDS011;23841;48.524;1.342;2022-12-08T07:17:29;11.90;;;6.22;;
38034;SDS011;23841;48.524;1.342;2022-12-08T07:19:54;10.10;;;5.50;;
38034;SDS011;23841;48.524;1.342;2022-12-08T07:22:19;13.73;;;6.88;;
38034;SDS011;23841;48.524;1.342;2022-12-08T07:24:44;12.60;;;7.05;;
38034;SDS011;23841;48.524;1.342;2022-12-08T07:27:10;10.95;;;6.28;;
38034;SDS011;23841;48.524;1.342;2022-12-08T07:29:35;11.30;;;6.65;;
38034;SDS011;23841;48.524;1.342;2022-12-08T07:32:00;11.02;;;6.20;;
38034;SDS011;23841;48.524;1.342;2022-12-08T07:34:25;11.57;;;6.70;;
38034;SDS011;23841;48.524;1.342;2022-12-08T07:36:51;10.93;;;6.43;;
38034;SDS011;23841;48.524;1.342;2022-12-08T07:39:16;11.27;;;6.97;;
38034;SDS011;23841;48.524;1.342;2022-12-08T07:41:41;10.70;;;6.18;;
38034;SDS011;23841;48.524;1.342;2022-12-08T07:44:07;11.18;;;6.70;;
38034;SDS011;23841;48.524;1.342;2022-12-08T07:46:32;11.05;;;6.47;;
38034;SDS011;23841;48.524;1.342;2022-12-08T07:48:58;10.00;;;6.13;;
38034;SDS011;23841;48.524;1.342;2022-12-08T07:51:23;13.23;;;7.47;;
38034;SDS011;23841;48.524;1.342;2022-12-08T07:53:49;15.05;;;7.28;;
38034;SDS011;23841;48.524;1.342;2022-12-08T07:56:14;12.88;;;7.28;;
38034;SDS011;23841;48.524;1.342;2022-12-08T07:58:40;13.70;;;7.65;;
38034;SDS011;23841;48.524;1.342;2022-12-08T08:01:05;12.00;;;6.65;;
38034;SDS011;23841;48.524;1.342;2022-12-08T08:03:31;11.00;;;6.47;;
38034;SDS011;23841;48.524;1.342;2022-12-08T08:06:02;11.70;;;6.88;;
38034;SDS011;23841;48.524;1.342;2022-12-08T08:08:28;11.45;;;6.20;;
38034;SDS011;23841;48.524;1.342;2022-12-08T08:10:53;12.30;;;7.10;;
38034;SDS011;23841;48.524;1.342;2022-12-08T08:13:19;12.73;;;6.72;;
38034;SDS011;23841;48.524;1.342;2022-12-08T08:15:44;14.20;;;6.63;;
38034;SDS011;23841;48.524;1.342;2022-12-08T08:18:09;12.25;;;6.30;;
38034;SDS011;23841;48.524;1.342;2022-12-08T08:20:34;11.60;;;6.15;;
38034;SDS011;23841;48.524;1.342;2022-12-08T08:23:00;11.90;;;6.18;;
38034;SDS011;23841;48.524;1.342;2022-12-08T08:25:25;12.75;;;6.72;;
38034;SDS011;23841;48.524;1.342;2022-12-08T08:27:50;11.43;;;6.43;;
38034;SDS011;23841;48.524;1.342;2022-12-08T08:30:16;13.63;;;6.53;;
38034;SDS011;23841;48.524;1.342;2022-12-08T08:32:41;11.80;;;6.18;;
38034;SDS011;23841;48.524;1.342;2022-12-08T08:35:07;8.50;;;5.43;;
38034;SDS011;23841;48.524;1.342;2022-12-08T08:37:32;9.80;;;5.75;;
38034;SDS011;23841;48.524;1.342;2022-12-08T08:39:57;9.75;;;5.75;;
38034;SDS011;23841;48.524;1.342;2022-12-08T08:42:23;8.85;;;5.65;;
38034;SDS011;23841;48.524;1.342;2022-12-08T08:44:48;8.48;;;5.05;;
38034;SDS011;23841;48.524;1.342;2022-12-08T08:47:13;11.68;;;6.07;;
38034;SDS011;23841;48.524;1.342;2022-12-08T08:49:38;10.10;;;5.85;;
38034;SDS011;23841;48.524;1.342;2022-12-08T08:52:04;11.98;;;6.75;;
38034;SDS011;23841;48.524;1.342;2022-12-08T08:54:29;12.00;;;5.85;;
38034;SDS011;23841;48.524;1.342;2022-12-08T08:56:59;9.73;;;6.07;;
38034;SDS011;23841;48.524;1.342;2022-12-08T08:59:24;10.70;;;5.95;;
38034;SDS011;23841;48.524;1.342;2022-12-08T09:01:50;10.10;;;5.65;;
38034;SDS011;23841;48.524;1.342;2022-12-08T09:04:15;11.50;;;6.00;;
38034;SDS011;23841;48.524;1.342;2022-12-08T09:06:40;9.00;;;5.55;;
38034;SDS011;23841;48.524;1.342;2022-12-08T09:09:07;11.07;;;6.03;;
38034;SDS011;23841;48.524;1.342;2022-12-08T09:11:32;14.85;;;6.95;;
38034;SDS011;23841;48.524;1.342;2022-12-08T09:13:57;13.85;;;7.07;;
38034;SDS011;23841;48.524;1.342;2022-12-08T09:16:23;15.52;;;7.80;;
38034;SDS011;23841;48.524;1.342;2022-12-08T09:18:48;14.90;;;8.15;;
38034;SDS011;23841;48.524;1.342;2022-12-08T09:21:15;16.33;;;8.88;;
38034;SDS011;23841;48.524;1.342;2022-12-08T09:23:44;18.85;;;8.70;;
38034;SDS011;23841;48.524;1.342;2022-12-08T09:26:09;18.02;;;8.93;;
38034;SDS011;23841;48.524;1.342;2022-12-08T09:28:35;18.58;;;8.88;;
38034;SDS011;23841;48.524;1.342;2022-12-08T09:31:00;18.13;;;9.27;;
38034;SDS011;23841;48.524;1.342;2022-12-08T09:33:26;17.42;;;9.40;;
38034;SDS011;23841;48.524;1.342;2022-12-08T09:35:51;16.73;;;9.25;;
38034;SDS011;23841;48.524;1.342;2022-12-08T09:38:17;14.85;;;8.45;;
38034;SDS011;23841;48.524;1.342;2022-12-08T09:40:48;13.73;;;7.90;;
38034;SDS011;23841;48.524;1.342;2022-12-08T09:45:57;16.00;;;8.48;;
38034;SDS011;23841;48.524;1.342;2022-12-08T09:48:24;14.43;;;8.02;;
38034;SDS011;23841;48.524;1.342;2022-12-08T09:50:55;18.13;;;8.98;;
38034;SDS011;23841;48.524;1.342;2022-12-08T09:53:33;13.13;;;7.03;;
38034;SDS011;23841;48.524;1.342;2022-12-08T09:56:04;20.45;;;8.38;;
38034;SDS011;23841;48.524;1.342;2022-12-08T10:01:09;14.35;;;7.47;;
38034;SDS011;23841;48.524;1.342;2022-12-08T10:03:35;14.07;;;7.30;;
38034;SDS011;23841;48.524;1.342;2022-12-08T10:08:29;11.52;;;6.55;;
38034;SDS011;23841;48.524;1.342;2022-12-08T10:10:58;12.23;;;6.75;;
38034;SDS011;23841;48.524;1.342;2022-12-08T10:13:41;15.85;;;7.60;;
38034;SDS011;23841;48.524;1.342;2022-12-08T10:16:23;13.27;;;6.63;;
38034;SDS011;23841;48.524;1.342;2022-12-08T10:18:54;12.10;;;6.22;;
38034;SDS011;23841;48.524;1.342;2022-12-08T10:21:22;12.85;;;6.40;;
38034;SDS011;23841;48.524;1.342;2022-12-08T10:23:50;11.85;;;5.90;;
38034;SDS011;23841;48.524;1.342;2022-12-08T10:26:17;11.77;;;6.85;;
38034;SDS011;23841;48.524;1.342;2022-12-08T10:28:43;10.48;;;6.07;;
38034;SDS011;23841;48.524;1.342;2022-12-08T10:31:20;11.32;;;5.72;;
38034;SDS011;23841;48.524;1.342;2022-12-08T10:33:46;11.82;;;6.53;;
38034;SDS011;23841;48.524;1.342;2022-12-08T10:36:12;10.30;;;6.25;;
38034;SDS011;23841;48.524;1.342;2022-12-08T10:38:38;10.32;;;6.15;;
38034;SDS011;23841;48.524;1.342;2022-12-08T10:41:11;12.20;;;6.97;;
38034;SDS011;23841;48.524;1.342;2022-12-08T10:43:37;11.68;;;6.53;;
38034;SDS011;23841;48.524;1.342;2022-12-08T10:46:10;12.70;;;6.70;;
38034;SDS011;23841;48.524;1.342;2022-12-08T10:48:36;11.02;;;6.15;;
38034;SDS011;23841;48.524;1.342;2022-12-08T10:51:18;15.90;;;7.20;;
38034;SDS011;23841;48.524;1.342;2022-12-08T10:53:45;13.15;;;6.78;;
38034;SDS011;23841;48.524;1.342;2022-12-08T10:56:14;14.32;;;7.10;;
38034;SDS011;23841;48.524;1.342;2022-12-08T10:58:41;14.77;;;7.07;;
38034;SDS011;23841;48.524;1.342;2022-12-08T11:01:11;14.52;;;7.72;;
38034;SDS011;23841;48.524;1.342;2022-12-08T11:03:38;12.82;;;7.07;;
38034;SDS011;23841;48.524;1.342;2022-12-08T11:06:24;15.02;;;7.30;;
38034;SDS011;23841;48.524;1.342;2022-12-08T11:08:51;14.57;;;7.93;;
38034;SDS011;23841;48.524;1.342;2022-12-08T11:11:17;11.80;;;7.00;;
38034;SDS011;23841;48.524;1.342;2022-12-08T11:13:42;14.15;;;7.47;;
38034;SDS011;23841;48.524;1.342;2022-12-08T11:16:10;15.32;;;7.63;;
38034;SDS011;23841;48.524;1.342;2022-12-08T11:18:43;11.32;;;7.68;;
38034;SDS011;23841;48.524;1.342;2022-12-08T11:21:10;12.57;;;6.97;;
38034;SDS011;23841;48.524;1.342;2022-12-08T11:23:36;12.88;;;7.15;;
38034;SDS011;23841;48.524;1.342;2022-12-08T11:26:04;13.02;;;7.45;;
38034;SDS011;23841;48.524;1.342;2022-12-08T11:28:30;11.65;;;7.40;;
38034;SDS011;23841;48.524;1.342;2022-12-08T11:31:07;13.80;;;7.32;;
38034;SDS011;23841;48.524;1.342;2022-12-08T11:33:36;13.18;;;6.57;;
38034;SDS011;23841;48.524;1.342;2022-12-08T11:36:02;14.23;;;7.63;;
38034;SDS011;23841;48.524;1.342;2022-12-08T11:38:28;12.85;;;7.05;;
38034;SDS011;23841;48.524;1.342;2022-12-08T11:45:55;13.07;;;6.65;;
38034;SDS011;23841;48.524;1.342;2022-12-08T11:51:08;13.40;;;6.85;;
38034;SDS011;23841;48.524;1.342;2022-12-08T11:53:40;11.80;;;6.95;;
38034;SDS011;23841;48.524;1.342;2022-12-08T11:56:19;14.77;;;7.43;;
38034;SDS011;23841;48.524;1.342;2022-12-08T11:58:45;13.65;;;6.85;;
38034;SDS011;23841;48.524;1.342;2022-12-08T12:01:29;10.68;;;6.40;;
38034;SDS011;23841;48.524;1.342;2022-12-08T12:15:12;9.25;;;5.80;;
38034;SDS011;23841;48.524;1.342;2022-12-08T12:17:37;11.02;;;5.88;;
38034;SDS011;23841;48.524;1.342;2022-12-08T12:20:10;10.63;;;5.97;;
38034;SDS011;23841;48.524;1.342;2022-12-08T12:22:36;10.35;;;5.63;;
38034;SDS011;23841;48.524;1.342;2022-12-08T12:25:02;13.40;;;5.95;;
38034;SDS011;23841;48.524;1.342;2022-12-08T12:27:38;11.38;;;6.10;;
38034;SDS011;23841;48.524;1.342;2022-12-08T12:30:07;11.40;;;5.60;;
38034;SDS011;23841;48.524;1.342;2022-12-08T12:32:43;12.43;;;6.75;;
38034;SDS011;23841;48.524;1.342;2022-12-08T12:35:13;9.43;;;5.30;;
38034;SDS011;23841;48.524;1.342;2022-12-08T12:37:41;9.52;;;5.57;;
38034;SDS011;23841;48.524;1.342;2022-12-08T12:40:14;10.25;;;5.40;;
38034;SDS011;23841;48.524;1.342;2022-12-08T12:42:41;8.68;;;5.38;;
38034;SDS011;23841;48.524;1.342;2022-12-08T12:47:49;10.82;;;5.97;;
38034;SDS011;23841;48.524;1.342;2022-12-08T12:52:52;9.77;;;5.63;;
38034;SDS011;23841;48.524;1.342;2022-12-08T12:55:19;9.80;;;5.75;;
38034;SDS011;23841;48.524;1.342;2022-12-08T12:57:52;8.45;;;5.63;;
38034;SDS011;23841;48.524;1.342;2022-12-08T13:00:20;11.88;;;5.90;;
38034;SDS011;23841;48.524;1.342;2022-12-08T13:02:46;8.90;;;5.05;;
38034;SDS011;23841;48.524;1.342;2022-12-08T13:10:20;10.25;;;5.88;;
38034;SDS011;23841;48.524;1.342;2022-12-08T13:15:35;9.35;;;5.38;;
38034;SDS011;23841;48.524;1.342;2022-12-08T13:18:01;9.50;;;5.47;;
38034;SDS011;23841;48.524;1.342;2022-12-08T13:20:27;7.93;;;4.97;;
38034;SDS011;23841;48.524;1.342;2022-12-08T13:30:43;10.75;;;5.50;;
38034;SDS011;23841;48.524;1.342;2022-12-08T13:33:09;9.43;;;5.97;;
38034;SDS011;23841;48.524;1.342;2022-12-08T13:35:37;11.68;;;6.07;;
38034;SDS011;23841;48.524;1.342;2022-12-08T13:38:04;10.25;;;5.65;;
38034;SDS011;23841;48.524;1.342;2022-12-08T13:40:31;9.65;;;5.80;;
38034;SDS011;23841;48.524;1.342;2022-12-08T13:45:26;10.07;;;5.60;;
38034;SDS011;23841;48.524;1.342;2022-12-08T13:47:56;9.60;;;6.13;;
38034;SDS011;23841;48.524;1.342;2022-12-08T13:50:43;9.43;;;5.60;;
38034;SDS011;23841;48.524;1.342;2022-12-08T13:53:12;11.82;;;5.97;;
38034;SDS011;23841;48.524;1.342;2022-12-08T13:55:40;11.93;;;6.13;;
38034;SDS011;23841;48.524;1.342;2022-12-08T13:58:06;9.82;;;5.32;;
38034;SDS011;23841;48.524;1.342;2022-12-08T14:00:39;8.85;;;5.25;;
38034;SDS011;23841;48.524;1.342;2022-12-08T14:03:07;9.68;;;5.43;;
38034;SDS011;23841;48.524;1.342;2022-12-08T14:05:39;9.40;;;5.90;;
38034;SDS011;23841;48.524;1.342;2022-12-08T14:08:06;9.88;;;6.15;;
38034;SDS011;23841;48.524;1.342;2022-12-08T14:10:33;10.10;;;5.80;;
38034;SDS011;23841;48.524;1.342;2022-12-08T14:13:00;9.40;;;6.40;;
38034;SDS011;23841;48.524;1.342;2022-12-08T14:15:27;8.50;;;5.35;;
38034;SDS011;23841;48.524;1.342;2022-12-08T14:17:53;9.02;;;5.78;;
38034;SDS011;23841;48.524;1.342;2022-12-08T14:22:44;9.00;;;5.50;;
38034;SDS011;23841;48.524;1.342;2022-12-08T14:25:12;10.02;;;5.53;;
38034;SDS011;23841;48.524;1.342;2022-12-08T14:27:39;8.95;;;5.47;;
38034;SDS011;23841;48.524;1.342;2022-12-08T14:32:38;9.93;;;5.20;;
38034;SDS011;23841;48.524;1.342;2022-12-08T14:37:32;8.45;;;5.20;;
38034;SDS011;23841;48.524;1.342;2022-12-08T14:39:59;8.77;;;5.25;;
38034;SDS011;23841;48.524;1.342;2022-12-08T14:42:26;8.15;;;5.50;;
38034;SDS011;23841;48.524;1.342;2022-12-08T14:45:07;9.48;;;5.47;;
38034;SDS011;23841;48.524;1.342;2022-12-08T14:47:33;11.20;;;5.70;;
38034;SDS011;23841;48.524;1.342;2022-12-08T14:49:59;7.28;;;4.82;;
38034;SDS011;23841;48.524;1.342;2022-12-08T14:52:25;10.07;;;5.72;;
38034;SDS011;23841;48.524;1.342;2022-12-08T14:54:50;9.95;;;5.63;;
38034;SDS011;23841;48.524;1.342;2022-12-08T14:57:16;11.57;;;5.22;;
38034;SDS011;23841;48.524;1.342;2022-12-08T14:59:42;8.25;;;5.28;;
38034;SDS011;23841;48.524;1.342;2022-12-08T15:05:02;8.98;;;5.43;;
38034;SDS011;23841;48.524;1.342;2022-12-08T15:07:48;8.95;;;5.18;;
38034;SDS011;23841;48.524;1.342;2022-12-08T15:12:39;9.60;;;5.78;;
38034;SDS011;23841;48.524;1.342;2022-12-08T15:20:04;17.73;;;6.30;;
38034;SDS011;23841;48.524;1.342;2022-12-08T15:22:29;12.65;;;5.97;;
38034;SDS011;23841;48.524;1.342;2022-12-08T15:24:55;10.68;;;5.68;;
38034;SDS011;23841;48.524;1.342;2022-12-08T15:27:22;10.65;;;5.80;;
38034;SDS011;23841;48.524;1.342;2022-12-08T15:29:47;10.00;;;6.00;;
38034;SDS011;23841;48.524;1.342;2022-12-08T15:32:15;8.82;;;5.32;;
38034;SDS011;23841;48.524;1.342;2022-12-08T15:34:41;8.70;;;5.30;;
38034;SDS011;23841;48.524;1.342;2022-12-08T15:37:09;10.93;;;5.63;;
38034;SDS011;23841;48.524;1.342;2022-12-08T15:39:39;11.05;;;5.50;;
38034;SDS011;23841;48.524;1.342;2022-12-08T15:42:08;9.85;;;5.40;;
38034;SDS011;23841;48.524;1.342;2022-12-08T15:44:35;10.25;;;5.63;;
38034;SDS011;23841;48.524;1.342;2022-12-08T15:47:01;8.60;;;4.97;;
38034;SDS011;23841;48.524;1.342;2022-12-08T15:49:26;8.35;;;5.47;;
38034;SDS011;23841;48.524;1.342;2022-12-08T15:51:52;9.23;;;4.93;;
38034;SDS011;23841;48.524;1.342;2022-12-08T15:54:17;7.88;;;5.28;;
38034;SDS011;23841;48.524;1.342;2022-12-08T15:56:49;10.38;;;6.50;;
38034;SDS011;23841;48.524;1.342;2022-12-08T15:59:18;9.43;;;5.10;;
38034;SDS011;23841;48.524;1.342;2022-12-08T16:01:44;9.05;;;6.18;;
38034;SDS011;23841;48.524;1.342;2022-12-08T16:04:13;7.75;;;4.90;;
38034;SDS011;23841;48.524;1.342;2022-12-08T16:06:40;7.45;;;5.10;;
38034;SDS011;23841;48.524;1.342;2022-12-08T16:09:08;13.60;;;5.28;;
38034;SDS011;23841;48.524;1.342;2022-12-08T16:11:37;7.50;;;4.80;;
38034;SDS011;23841;48.524;1.342;2022-12-08T16:14:21;10.40;;;4.82;;